Startpagina
METAR-TAF:

METAR-TAF

Vliegvelden :

Luchthaven van Khartoem

Khartoem, Soedan

breedte: 15-36N, lengte: 032-33E, hoogte: 382 m

Actueel weer

Dit bericht is 47 minuten geleden gemaakt, om 13:00 UTC
Wind 4 kt uit het zuidzuidoosten
Temperatuur 35°C
Vochtigheid 37%
Druk 1008 hPa
Zicht: 3000 m
Heiigheid

METAR: HSSS 181300Z 16004KT 3000 HZ 35/18 Q1008 NOSIG

Tijdstip: 16:47 (13:47 UTC)

Verwachting

Dit bericht is 8 uur en het 47 minuten geleden gemaakt, om 05:00 UTC
Verwachting geldig van 18 om 06 UTC tot 19 om 12 UTC
Wind 8 kt uit het zuiden met uitschieters tot 18 kt
Zicht: 6000 m
Verspreide wolken op 14000 ft
Tijdelijke
van 18 om 06 UTC tot 18 om 09 UTC
Wind 3 kt uit variabele richting
Zicht: 0500 m
Heiigheid
Kans 30%
van 18 om 09 UTC tot 18 om 12 UTC
Zicht: 1500 m
Heiigheid

TAF: HSSS 180500Z 1806/1912 18008G18KT 6000 SCT140 TEMPO 1806/1809 VRB03KT 0500 HZ PROB30 1809/1812 1500 HZ

Waarnemingen en weersverwachtingen van meer dan 4000 vliegvelden (METAR en TAF).

De beschikbare stations zijn de gele en rode punten op de kaart.

Ga met uw muis naar het station om de naam te zien.

Klik dan om waarnemingen en weersverwachtingen te zien.

kaart wijzigen: klik op de groene knoppen met een zwart kruis om in te zoomen, op de groene knop met een streepje om uit te zoomen of op de groene pijlen voor aangrenzende kaarten.


METAR-TAF: